Details From HETB - TABA INTL
To LCLK - Larnaca
Flight Number -
Tags generated
Created
Modified
Stats Distance 327 nm / 605 km
Max Altitude 35,000 ft / 10,668 m
Waypoints 6
Social Downloads 2
Likes 0
Share

Download

Looking for another format? Having issues loading an existing format? Contact us
Advertisement - Login to hide

Notes

Basic altitude profile: - Ascent Rate: 2500ft/min - Ascent Speed: 250kts - Cruise Altitude: 35000ft - Cruise Speed: 420kts - Descent Rate: 1500ft/min - Descent Speed: 250kts Options: - Use NATs: yes - Use PACOTS: yes - Use low airways: yes - Use high airways: yes

Route

HETB BSA UJ12 TIBBI H2C SOLIN W13 VELOX LCLK

ID Type Via Altitude (ft/m) Position (lat/lon) Dist (leg/tot) Name
O HETB APT - 0 / 0 29.58839 / 34.77756 - / 0 nm TABA INTL
BSA VOR - 35,000 / 10,668 31.28616 / 34.72134 102 / 102 nm BEER-SHEBA VOR
TIBBI FIX UJ12 (AWY-HI) 35,000 / 10,668 32.03394 / 34.38577 48 / 150 nm
SOLIN FIX H2C (AWY-LO) 31,500 / 9,601 32.49451 / 34.17077 29 / 179 nm
VELOX FIX W13 (AWY-LO) 14,400 / 4,389 33.81667 / 34.08333 79 / 259 nm
O LCLK APT - 0 / 0 34.87512 / 33.62483 67 / 326 nm Larnaca

Altitude Profile

Advertisement - Login to hide

Weather


0- 5 10 15 20 25 30 35+ Temperature / °C

Clouds and Precipitation
Forecast for 2022-05-26 18:00 UTC. Updated an hour ago

Ground ~20,000 ft ~40,000 ft Winds

HETB

Details ICAO HETB (TCP)
Name TABA INTL
Region Egypt
Timezone Africa/Cairo (UTC+2.0)
Stats Elevation 2,415 ft / 736 m (AMSL)
Location 29.587900° 34.778200°
Runways 1
Magnetic Variation 4.784° E

METAR

Not found

TAF

TAF HETB 261100Z 2612/2718 35015KT CAVOK

Decode

Departure Runways

ID Width Length Bearing (true/mag) Surface Threshold Overrun Markings Lighting
04R 148 ft / 45 m 13,118 ft / 3,999 m 41.67° / 36.89° ASPHALT 0 ft / 0 m 200 ft / 61 m PREC-APP
22L 148 ft / 45 m 13,118 ft / 3,999 m 221.68° / 216.90° ASPHALT 0 ft / 0 m 223 ft / 68 m APP

LCLK

Details ICAO LCLK (LCA)
Name Larnaca Intl
Region Cyprus
Timezone Asia/Nicosia (UTC+3.0)
Stats Elevation 11 ft / 3 m (AMSL)
Location 34.873800° 33.624000°
Runways 1
Magnetic Variation 5.376° E

METAR

LCLK 261630Z 20005KT 9999 FEW035 26/18 Q1013 NOSIG

Decode

TAF

TAF LCLK 261130Z 2612/2712 18010KT 9999 FEW040 BECMG 2617/2619 32009KT BECMG 2707/2710 17010KT

Decode

Destination Runways

ID Width Length Bearing (true/mag) Surface Threshold Overrun Markings Lighting
04 148 ft / 45 m 9,832 ft / 2,997 m 45.08° / 39.70° ASPHALT 0 ft / 0 m 0 ft / 0 m PREC-APP CENTERLINE EDGE THRESHOLD ALSF-II REIL-OMNI
22 148 ft / 45 m 9,832 ft / 2,997 m 225.09° / 219.72° ASPHALT 627 ft / 191 m 0 ft / 0 m PREC-APP CENTERLINE EDGE THRESHOLD ALSF-II REIL-OMNI

Approach Navaids

Runway Type Ident Frequency Range Bearing (true/mag) Slope Elevation
22 DME ILC 110.30 MHz 18 nm / 33 km - - 20 ft / 6 m (AMSL)
22 LOC-ILS ILC 110.30 MHz 18 nm / 33 km 225.09° / 219.71 ° - 11 ft / 3 m (AMSL)
22 GS ILC 110.30 MHz 10 nm / 19 km 225.09° / 219.71 ° 2.75° 11 ft / 3 m (AMSL)